Whitworth, United Kingdom
Current Conditions -  °F | °C
As of 7:20 AM on Thursday 23 Oct 2014 (Local Time) from EGCC Reporting Station
Broken Clouds Broken Clouds  
Wind Chill: 52°   Ceiling: 2800
Heat Index: 52°   Visibility: 6mi
Dew Point: 50°   Wind: 12mph
Humidity: 94%   Direction: 180°S
Pressure: 30"   Gusts: NA
Location:  53.66°N, 2.18°W
Report Text: EGCC 230620Z 18010KT 130V190 9999 SCT022 BKN028 BKN033 11/10 Q1016
Loading
Personal Weather Stations






























Interactive Weather Map
Tropical Storm Tracking
New forecast layout! Learn more

10-Day Weather Forecast

Advertisements
Track Severe Weather on mobile